createdAt,value
2017-11-13T00:00:05.880Z,10.30
2017-11-13T00:00:40.613Z,10.80
2017-11-13T00:01:15.380Z,10.15
2017-11-13T00:01:50.121Z,9.93
2017-11-13T00:02:24.895Z,9.90
2017-11-13T00:02:59.633Z,9.35
2017-11-13T00:03:36.772Z,9.50
2017-11-13T00:04:11.597Z,9.57
2017-11-13T00:04:46.333Z,9.40
2017-11-13T00:05:21.087Z,10.15
2017-11-13T00:05:55.843Z,10.25
2017-11-13T00:06:30.789Z,10.07
2017-11-13T00:07:05.567Z,10.25
2017-11-13T00:07:40.288Z,9.30
2017-11-13T00:08:15.627Z,10.13
2017-11-13T00:08:50.346Z,9.82
2017-11-13T00:09:25.079Z,10.10
2017-11-13T00:09:59.856Z,10.85
2017-11-13T00:10:34.586Z,9.77
2017-11-13T00:11:09.356Z,11.20
2017-11-13T00:11:44.137Z,11.00
2017-11-13T00:12:18.882Z,11.00
2017-11-13T00:12:53.626Z,10.48
2017-11-13T00:13:28.392Z,11.50
2017-11-13T00:14:02.765Z,11.07
2017-11-13T00:14:37.516Z,10.90
2017-11-13T00:15:12.248Z,10.88
2017-11-13T00:15:46.993Z,10.77
2017-11-13T00:16:21.780Z,10.90
2017-11-13T00:16:56.522Z,12.10
2017-11-13T00:17:31.251Z,11.93
2017-11-13T00:18:05.643Z,12.25
2017-11-13T00:18:40.748Z,11.75
2017-11-13T00:19:15.492Z,11.50
2017-11-13T00:19:50.221Z,11.52
2017-11-13T00:20:25.045Z,11.48
2017-11-13T00:20:59.753Z,12.00
2017-11-13T00:21:34.467Z,11.80
2017-11-13T00:22:09.288Z,11.68
2017-11-13T00:22:44.693Z,10.55
2017-11-13T00:23:19.411Z,11.60
2017-11-13T00:23:54.432Z,10.57
2017-11-13T00:24:29.149Z,11.88
2017-11-13T00:25:03.528Z,12.07
2017-11-13T00:25:38.254Z,12.00
2017-11-13T00:26:12.988Z,12.20
2017-11-13T00:26:47.713Z,11.12
2017-11-13T00:27:22.498Z,12.20
2017-11-13T00:27:57.208Z,12.13
2017-11-13T00:28:31.925Z,12.40
2017-11-13T00:29:06.956Z,12.32
2017-11-13T00:29:41.673Z,11.75
2017-11-13T00:30:16.400Z,13.07
2017-11-13T00:30:51.113Z,13.18
2017-11-13T00:31:25.824Z,12.48
2017-11-13T00:32:00.546Z,12.05
2017-11-13T00:32:35.252Z,12.20
2017-11-13T00:33:09.973Z,12.35
2017-11-13T00:33:44.781Z,12.68
2017-11-13T00:34:19.640Z,12.68
2017-11-13T00:34:55.433Z,11.75
2017-11-13T00:35:30.171Z,12.18
2017-11-13T00:36:04.884Z,11.57
2017-11-13T00:36:39.615Z,12.73
2017-11-13T00:37:14.382Z,11.98
2017-11-13T00:37:49.132Z,13.30
2017-11-13T00:38:23.861Z,12.57
2017-11-13T00:38:58.580Z,12.43
2017-11-13T00:39:33.346Z,13.00
2017-11-13T00:40:08.098Z,12.75
2017-11-13T00:40:42.821Z,13.55
2017-11-13T00:41:17.529Z,13.90
2017-11-13T00:41:52.249Z,13.30
2017-11-13T00:42:26.965Z,13.02
2017-11-13T00:43:01.716Z,13.45
2017-11-13T00:43:36.452Z,13.50
2017-11-13T00:44:11.173Z,13.35
2017-11-13T00:44:46.192Z,13.18
2017-11-13T00:45:20.942Z,13.32
2017-11-13T00:45:55.661Z,14.05
2017-11-13T00:46:30.368Z,13.23
2017-11-13T00:47:05.118Z,13.68
2017-11-13T00:47:39.833Z,13.82
2017-11-13T00:48:14.566Z,13.10
2017-11-13T00:48:49.286Z,13.85
2017-11-13T00:49:24.003Z,13.55
2017-11-13T00:49:58.750Z,15.00
2017-11-13T00:50:33.463Z,13.27
2017-11-13T00:51:09.592Z,14.52
2017-11-13T00:51:44.332Z,15.25
2017-11-13T00:52:19.079Z,13.90
2017-11-13T00:52:53.793Z,14.48
2017-11-13T00:53:28.509Z,14.35
2017-11-13T00:54:03.226Z,13.00
2017-11-13T00:54:37.935Z,14.48
2017-11-13T00:55:12.818Z,13.80
2017-11-13T00:55:47.537Z,14.32
2017-11-13T00:56:22.264Z,14.77
2017-11-13T00:56:56.966Z,14.10
2017-11-13T00:57:31.676Z,13.88
2017-11-13T00:58:06.041Z,14.57
2017-11-13T00:58:40.791Z,14.02
2017-11-13T00:59:15.540Z,13.88
2017-11-13T00:59:50.252Z,14.52
2017-11-13T01:00:25.304Z,13.57
2017-11-13T01:01:00.018Z,14.18
2017-11-13T01:01:34.773Z,14.60
2017-11-13T01:02:09.519Z,13.45
2017-11-13T01:02:44.238Z,12.90
2017-11-13T01:03:18.947Z,15.13
2017-11-13T01:03:53.655Z,15.30
2017-11-13T01:04:28.371Z,14.23
2017-11-13T01:05:03.203Z,14.73
2017-11-13T01:05:37.925Z,14.20
2017-11-13T01:06:12.648Z,13.90
2017-11-13T01:06:47.364Z,13.93
2017-11-13T01:07:22.114Z,14.10
2017-11-13T01:07:56.831Z,14.87
2017-11-13T01:08:31.545Z,14.35
2017-11-13T01:09:06.258Z,13.90
2017-11-13T01:09:40.624Z,14.10
2017-11-13T01:10:15.334Z,15.27
2017-11-13T01:10:50.356Z,14.00
2017-11-13T01:11:25.073Z,13.80
2017-11-13T01:11:59.824Z,14.07
2017-11-13T01:12:34.540Z,13.27
2017-11-13T01:13:09.264Z,13.75
2017-11-13T01:13:43.979Z,14.02
2017-11-13T01:14:18.724Z,13.90
2017-11-13T01:14:53.432Z,14.65
2017-11-13T01:15:28.163Z,13.68
2017-11-13T01:16:02.925Z,13.40
2017-11-13T01:16:37.982Z,14.43
2017-11-13T01:17:12.694Z,14.95
2017-11-13T01:17:47.408Z,14.95
2017-11-13T01:18:22.132Z,14.55
2017-11-13T01:18:56.864Z,14.40
2017-11-13T01:19:31.581Z,13.82
2017-11-13T01:20:06.336Z,13.98
2017-11-13T01:20:41.053Z,14.18
2017-11-13T01:21:15.792Z,13.57
2017-11-13T01:21:50.355Z,15.55
2017-11-13T01:22:25.081Z,13.80
2017-11-13T01:22:59.789Z,13.80
2017-11-13T01:23:34.512Z,13.70
2017-11-13T01:24:09.227Z,13.10
2017-11-13T01:24:43.945Z,14.00
2017-11-13T01:25:18.660Z,14.00
2017-11-13T01:25:53.398Z,13.65
2017-11-13T01:26:28.147Z,13.38
2017-11-13T01:27:02.868Z,14.20
2017-11-13T01:27:37.613Z,13.77
2017-11-13T01:28:12.332Z,13.73
2017-11-13T01:28:47.077Z,14.00
2017-11-13T01:29:21.788Z,15.52
2017-11-13T01:29:56.502Z,14.95
2017-11-13T01:30:31.210Z,13.98
2017-11-13T01:31:05.939Z,14.20
2017-11-13T01:31:40.709Z,13.88
2017-11-13T01:32:15.441Z,15.38
2017-11-13T01:32:50.170Z,14.80
2017-11-13T01:33:24.890Z,15.88
2017-11-13T01:33:59.600Z,13.60
2017-11-13T01:34:34.314Z,13.62
2017-11-13T01:35:09.134Z,14.25
2017-11-13T01:35:43.501Z,14.32
2017-11-13T01:36:18.213Z,15.10
2017-11-13T01:36:53.303Z,13.95
2017-11-13T01:37:28.013Z,14.20
2017-11-13T01:38:02.737Z,14.40
2017-11-13T01:38:37.482Z,13.62
2017-11-13T01:39:12.225Z,13.27
2017-11-13T01:39:46.950Z,14.32
2017-11-13T01:40:21.674Z,13.77
2017-11-13T01:40:56.436Z,14.02
2017-11-13T01:41:31.188Z,13.95
2017-11-13T01:42:06.076Z,13.50
2017-11-13T01:42:40.819Z,14.25
2017-11-13T01:43:16.180Z,14.50
2017-11-13T01:43:50.926Z,14.35
2017-11-13T01:44:25.647Z,15.02
2017-11-13T01:45:00.353Z,14.32
2017-11-13T01:45:35.075Z,13.90
2017-11-13T01:46:09.786Z,14.90
2017-11-13T01:46:44.501Z,14.50
2017-11-13T01:47:19.250Z,14.70
2017-11-13T01:47:54.036Z,13.80
2017-11-13T01:48:28.577Z,14.23
2017-11-13T01:49:03.358Z,14.57
2017-11-13T01:49:38.349Z,13.60
2017-11-13T01:50:13.160Z,14.93
2017-11-13T01:50:47.865Z,15.65
2017-11-13T01:51:23.587Z,15.43
2017-11-13T01:51:58.298Z,14.63
2017-11-13T01:52:33.113Z,14.18
2017-11-13T01:53:08.309Z,15.00
2017-11-13T01:53:43.371Z,13.95
2017-11-13T01:54:18.093Z,14.87
2017-11-13T01:54:52.812Z,15.70
2017-11-13T01:55:27.542Z,14.80
2017-11-13T01:56:01.765Z,15.70
2017-11-13T01:56:35.964Z,15.52
2017-11-13T01:57:10.515Z,15.05
2017-11-13T01:57:45.497Z,14.75
2017-11-13T01:58:19.861Z,14.57
2017-11-13T01:58:54.613Z,16.08
2017-11-13T01:59:29.330Z,16.30
2017-11-13T02:00:03.701Z,15.40
2017-11-13T02:00:38.417Z,15.40
2017-11-13T02:01:13.128Z,16.55
2017-11-13T02:01:47.849Z,15.65
2017-11-13T02:02:22.557Z,15.60
2017-11-13T02:02:57.758Z,15.65
2017-11-13T02:03:31.958Z,15.13
2017-11-13T02:04:06.493Z,16.27
2017-11-13T02:04:40.873Z,15.65
2017-11-13T02:05:15.243Z,15.88
2017-11-13T02:05:49.447Z,15.52
2017-11-13T02:06:23.620Z,15.02
2017-11-13T02:06:57.813Z,15.70
2017-11-13T02:07:32.427Z,16.60
2017-11-13T02:08:06.870Z,15.98
2017-11-13T02:08:41.245Z,16.75
2017-11-13T02:09:15.615Z,16.80
2017-11-13T02:09:50.094Z,17.12
2017-11-13T02:10:24.456Z,16.75
2017-11-13T02:10:58.835Z,15.70
2017-11-13T02:11:33.213Z,17.37
2017-11-13T02:12:07.580Z,17.87
2017-11-13T02:12:41.954Z,16.48
2017-11-13T02:13:16.733Z,17.48
2017-11-13T02:13:50.905Z,16.58
2017-11-13T02:14:25.276Z,16.40
2017-11-13T02:14:59.988Z,17.67
2017-11-13T02:15:34.704Z,15.90
2017-11-13T02:16:09.430Z,16.05
2017-11-13T02:16:43.674Z,17.48
2017-11-13T02:17:18.207Z,18.35
2017-11-13T02:17:52.740Z,16.90
2017-11-13T02:18:27.760Z,17.92
2017-11-13T02:19:02.497Z,16.42
2017-11-13T02:19:36.858Z,18.15
2017-11-13T02:20:11.222Z,18.10
2017-11-13T02:20:47.433Z,16.65
2017-11-13T02:21:21.802Z,17.25
2017-11-13T02:21:56.155Z,17.12
2017-11-13T02:22:30.345Z,17.58
2017-11-13T02:23:04.513Z,16.85
2017-11-13T02:23:38.727Z,16.62
2017-11-13T02:24:12.914Z,16.80
2017-11-13T02:24:47.091Z,17.08
2017-11-13T02:25:21.321Z,16.85
2017-11-13T02:25:55.687Z,16.98
2017-11-13T02:26:31.110Z,16.92
2017-11-13T02:27:05.504Z,17.10
2017-11-13T02:27:39.917Z,17.02
2017-11-13T02:28:14.312Z,17.60
2017-11-13T02:28:48.696Z,17.25
2017-11-13T02:29:23.410Z,16.75
2017-11-13T02:29:58.161Z,17.77
2017-11-13T02:30:32.516Z,18.05
2017-11-13T02:31:06.889Z,16.67
2017-11-13T02:31:41.273Z,18.23
2017-11-13T02:32:15.645Z,17.00
2017-11-13T02:32:50.016Z,19.33
2017-11-13T02:33:24.382Z,16.55
2017-11-13T02:33:58.788Z,17.83
2017-11-13T02:34:33.156Z,18.95
2017-11-13T02:35:07.576Z,16.55
2017-11-13T02:35:42.281Z,17.62
2017-11-13T02:36:16.992Z,18.42
2017-11-13T02:36:51.360Z,18.60
2017-11-13T02:37:25.741Z,17.20
2017-11-13T02:38:00.111Z,17.52
2017-11-13T02:38:34.477Z,18.70
2017-11-13T02:39:08.871Z,18.40
2017-11-13T02:39:43.262Z,18.30
2017-11-13T02:40:17.633Z,18.75
2017-11-13T02:40:52.385Z,19.58
2017-11-13T02:41:26.752Z,18.23
2017-11-13T02:42:01.125Z,18.92
2017-11-13T02:42:35.504Z,19.02
2017-11-13T02:43:09.869Z,18.65
2017-11-13T02:43:44.252Z,18.58
2017-11-13T02:44:18.961Z,18.50
2017-11-13T02:44:53.137Z,18.25
2017-11-13T02:45:27.503Z,17.77
2017-11-13T02:46:01.894Z,17.83
2017-11-13T02:46:36.658Z,18.08
2017-11-13T02:47:11.196Z,17.85
2017-11-13T02:47:45.578Z,17.05
2017-11-13T02:48:20.184Z,16.80
2017-11-13T02:48:54.564Z,18.23
2017-11-13T02:49:28.961Z,18.12
2017-11-13T02:50:03.184Z,18.25
2017-11-13T02:50:37.869Z,17.08
2017-11-13T02:51:12.272Z,16.67
2017-11-13T02:51:46.665Z,16.67
2017-11-13T02:52:21.139Z,15.85
2017-11-13T02:52:55.514Z,17.35
2017-11-13T02:53:30.043Z,16.85
2017-11-13T02:54:04.765Z,17.12
2017-11-13T02:54:39.506Z,17.52
2017-11-13T02:55:13.887Z,16.92
2017-11-13T02:55:48.084Z,18.20
2017-11-13T02:56:22.802Z,17.27
2017-11-13T02:56:57.179Z,17.35
2017-11-13T02:57:31.548Z,17.10
2017-11-13T02:58:06.091Z,16.52
2017-11-13T02:58:40.634Z,16.87
2017-11-13T02:59:15.018Z,18.12
2017-11-13T02:59:49.784Z,17.85
2017-11-13T03:00:24.496Z,17.52
2017-11-13T03:00:59.023Z,18.48
2017-11-13T03:01:33.410Z,17.35
2017-11-13T03:02:08.123Z,17.42
2017-11-13T03:02:42.837Z,17.48
2017-11-13T03:03:17.556Z,18.48
2017-11-13T03:03:52.269Z,17.35
2017-11-13T03:04:26.989Z,16.92
2017-11-13T03:05:01.749Z,17.30
2017-11-13T03:05:36.475Z,17.98
2017-11-13T03:06:10.855Z,17.87
2017-11-13T03:06:45.241Z,18.05
2017-11-13T03:07:19.943Z,17.70
2017-11-13T03:07:54.652Z,17.30
2017-11-13T03:08:29.365Z,18.65
2017-11-13T03:09:03.572Z,18.02
2017-11-13T03:09:37.941Z,17.92
2017-11-13T03:10:12.933Z,17.95
2017-11-13T03:10:47.645Z,16.67
2017-11-13T03:11:22.359Z,19.10
2017-11-13T03:11:57.064Z,18.05
2017-11-13T03:12:31.786Z,18.23
2017-11-13T03:13:06.509Z,18.95
2017-11-13T03:13:41.212Z,17.95
2017-11-13T03:14:15.933Z,17.95
2017-11-13T03:14:50.704Z,19.77
2017-11-13T03:15:25.969Z,17.80
2017-11-13T03:16:00.683Z,18.40
2017-11-13T03:16:35.395Z,18.90
2017-11-13T03:17:10.109Z,17.98
2017-11-13T03:17:44.823Z,18.12
2017-11-13T03:18:19.551Z,18.00
2017-11-13T03:18:54.279Z,19.05
2017-11-13T03:19:28.946Z,19.40
2017-11-13T03:20:03.560Z,18.75
2017-11-13T03:20:38.663Z,19.00
2017-11-13T03:21:13.396Z,18.35
2017-11-13T03:21:47.777Z,18.70
2017-11-13T03:22:22.497Z,18.92
2017-11-13T03:22:56.867Z,18.92
2017-11-13T03:23:31.580Z,18.00
2017-11-13T03:24:06.304Z,17.55
2017-11-13T03:24:41.064Z,18.33
2017-11-13T03:25:15.830Z,18.73
2017-11-13T03:25:50.580Z,16.98
2017-11-13T03:26:25.006Z,16.70
2017-11-13T03:26:59.732Z,18.23
2017-11-13T03:27:34.454Z,16.98
2017-11-13T03:28:08.817Z,16.85
2017-11-13T03:28:43.529Z,17.37
2017-11-13T03:29:17.910Z,17.40
2017-11-13T03:29:52.626Z,18.67
2017-11-13T03:30:27.368Z,17.35
2017-11-13T03:31:02.399Z,18.25
2017-11-13T03:31:37.108Z,16.62
2017-11-13T03:32:11.847Z,17.70
2017-11-13T03:32:46.587Z,18.08
2017-11-13T03:33:21.457Z,18.15
2017-11-13T03:33:56.192Z,18.67
2017-11-13T03:34:30.966Z,18.15
2017-11-13T03:35:05.688Z,18.83
2017-11-13T03:35:40.399Z,20.52
2017-11-13T03:36:15.545Z,18.37
2017-11-13T03:36:50.261Z,18.08
2017-11-13T03:37:24.986Z,17.10
2017-11-13T03:37:59.711Z,18.52
2017-11-13T03:38:34.764Z,19.73
2017-11-13T03:39:09.484Z,18.73
2017-11-13T03:39:44.235Z,18.67
2017-11-13T03:40:19.004Z,18.17
2017-11-13T03:40:54.680Z,19.62
2017-11-13T03:41:29.429Z,18.67
2017-11-13T03:42:04.283Z,18.15
2017-11-13T03:42:39.001Z,17.87
2017-11-13T03:43:13.724Z,17.48
2017-11-13T03:43:49.286Z,17.48
2017-11-13T03:44:24.066Z,19.30
2017-11-13T03:44:58.871Z,17.70
2017-11-13T03:45:33.586Z,18.10
2017-11-13T03:46:08.762Z,17.33
2017-11-13T03:46:43.905Z,18.02
2017-11-13T03:47:18.624Z,17.40
2017-11-13T03:47:53.566Z,16.58
2017-11-13T03:48:28.616Z,17.15
2017-11-13T03:49:03.337Z,17.58
2017-11-13T03:49:38.056Z,16.67
2017-11-13T03:50:12.877Z,16.58
2017-11-13T03:50:47.688Z,18.02
2017-11-13T03:51:22.418Z,17.60
2017-11-13T03:51:57.511Z,17.30
2017-11-13T03:52:32.276Z,17.37
2017-11-13T03:53:06.984Z,17.15
2017-11-13T03:53:41.687Z,17.95
2017-11-13T03:54:16.415Z,17.48
2017-11-13T03:54:51.141Z,17.73
2017-11-13T03:55:25.869Z,18.70
2017-11-13T03:56:00.604Z,17.55
2017-11-13T03:56:35.353Z,18.60
2017-11-13T03:57:10.467Z,18.35
2017-11-13T03:57:45.211Z,18.50
2017-11-13T03:58:19.961Z,17.30
2017-11-13T03:58:54.697Z,18.25
2017-11-13T03:59:29.452Z,18.27
2017-11-13T04:00:04.166Z,18.77
2017-11-13T04:00:39.108Z,19.17
2017-11-13T04:01:14.050Z,19.25
2017-11-13T04:01:49.025Z,18.77
2017-11-13T04:02:24.109Z,17.83
2017-11-13T04:02:59.184Z,17.73
2017-11-13T04:03:33.934Z,19.27
2017-11-13T04:04:08.780Z,19.17
2017-11-13T04:04:43.620Z,19.70
2017-11-13T04:05:18.389Z,19.73
2017-11-13T04:05:53.137Z,19.27
2017-11-13T04:06:27.874Z,18.52
2017-11-13T04:07:02.614Z,20.00
2017-11-13T04:07:37.459Z,19.65
2017-11-13T04:08:12.196Z,18.50
2017-11-13T04:08:46.926Z,19.05
2017-11-13T04:09:23.772Z,19.70
2017-11-13T04:09:58.149Z,19.37
2017-11-13T04:10:32.942Z,18.98
2017-11-13T04:11:07.656Z,19.42
2017-11-13T04:11:42.364Z,20.62
2017-11-13T04:12:17.097Z,20.90
2017-11-13T04:12:51.832Z,19.90
2017-11-13T04:13:26.571Z,19.50
2017-11-13T04:14:01.289Z,18.80
2017-11-13T04:14:36.009Z,19.25
2017-11-13T04:15:10.745Z,18.67
2017-11-13T04:15:45.484Z,19.58
2017-11-13T04:16:20.234Z,18.23
2017-11-13T04:16:54.774Z,18.80
2017-11-13T04:17:29.518Z,18.73
2017-11-13T04:18:04.699Z,18.58
2017-11-13T04:18:39.418Z,19.48
2017-11-13T04:19:14.164Z,18.83
2017-11-13T04:19:48.902Z,18.62
2017-11-13T04:20:24.180Z,17.15
2017-11-13T04:20:58.910Z,18.50
2017-11-13T04:21:33.632Z,17.08
2017-11-13T04:22:09.127Z,17.05
2017-11-13T04:22:44.012Z,16.90
2017-11-13T04:23:18.794Z,18.17
2017-11-13T04:23:53.512Z,17.45
2017-11-13T04:24:28.237Z,16.90
2017-11-13T04:25:03.081Z,16.35
2017-11-13T04:25:37.815Z,17.37
2017-11-13T04:26:12.533Z,18.10
2017-11-13T04:26:47.073Z,17.85
2017-11-13T04:27:21.846Z,18.40
2017-11-13T04:27:56.234Z,17.35
2017-11-13T04:28:30.977Z,18.00
2017-11-13T04:29:05.702Z,17.73
2017-11-13T04:29:40.432Z,18.62
2017-11-13T04:30:15.174Z,17.65
2017-11-13T04:30:49.978Z,18.23
2017-11-13T04:31:24.687Z,18.87
2017-11-13T04:31:59.406Z,18.73
2017-11-13T04:32:34.137Z,18.77
2017-11-13T04:33:08.503Z,18.50
2017-11-13T04:33:43.597Z,19.02
2017-11-13T04:34:18.317Z,17.90
2017-11-13T04:34:53.029Z,18.60
2017-11-13T04:35:27.770Z,17.60
2017-11-13T04:36:03.837Z,18.48
2017-11-13T04:36:38.549Z,18.45
2017-11-13T04:37:13.268Z,18.15
2017-11-13T04:37:47.984Z,17.20
2017-11-13T04:38:24.071Z,17.20
2017-11-13T04:38:58.835Z,17.87
2017-11-13T04:39:33.560Z,17.67
2017-11-13T04:40:08.273Z,19.20
2017-11-13T04:40:44.061Z,18.10
2017-11-13T04:41:18.780Z,18.80
2017-11-13T04:41:53.493Z,17.42
2017-11-13T04:42:28.208Z,18.70
2017-11-13T04:43:04.493Z,19.42
2017-11-13T04:43:39.232Z,18.60
2017-11-13T04:44:14.268Z,18.50
2017-11-13T04:44:48.977Z,18.37
2017-11-13T04:45:24.379Z,18.95
2017-11-13T04:45:59.088Z,18.20
2017-11-13T04:46:33.797Z,16.95
2017-11-13T04:47:08.520Z,17.70
2017-11-13T04:47:43.039Z,19.50
2017-11-13T04:48:17.748Z,17.42
2017-11-13T04:48:52.469Z,17.50
2017-11-13T04:49:27.217Z,18.08
2017-11-13T04:50:03.213Z,16.23
2017-11-13T04:50:37.972Z,16.98
2017-11-13T04:51:12.688Z,16.48
2017-11-13T04:51:48.321Z,15.75
2017-11-13T04:52:23.052Z,15.48
2017-11-13T04:52:57.767Z,16.80
2017-11-13T04:53:32.480Z,16.00
2017-11-13T04:54:07.919Z,15.95
2017-11-13T04:54:42.670Z,15.85
2017-11-13T04:55:17.383Z,15.20
2017-11-13T04:55:52.097Z,16.40
2017-11-13T04:56:26.836Z,16.05
2017-11-13T04:57:01.560Z,14.30
2017-11-13T04:57:36.300Z,14.52
2017-11-13T04:58:10.683Z,15.63
2017-11-13T04:58:45.394Z,14.98
2017-11-13T04:59:20.140Z,14.87
2017-11-13T04:59:55.236Z,15.88
2017-11-13T05:00:29.943Z,15.20
2017-11-13T05:01:04.318Z,14.57
2017-11-13T05:01:39.032Z,14.30
2017-11-13T05:02:13.764Z,14.93
2017-11-13T05:02:49.619Z,14.68
2017-11-13T05:03:24.332Z,14.98
2017-11-13T05:03:59.045Z,14.23
2017-11-13T05:04:33.747Z,14.85
2017-11-13T05:05:09.771Z,14.05
2017-11-13T05:05:44.138Z,14.52
2017-11-13T05:06:18.514Z,15.25
2017-11-13T05:06:52.888Z,13.43
2017-11-13T05:07:28.934Z,14.77
2017-11-13T05:08:03.372Z,14.60
2017-11-13T05:08:38.077Z,14.57
2017-11-13T05:09:12.873Z,14.63
2017-11-13T05:09:47.233Z,15.23
2017-11-13T05:10:21.925Z,14.27
2017-11-13T05:10:56.635Z,14.63
2017-11-13T05:11:31.667Z,14.95
2017-11-13T05:12:06.382Z,13.80
2017-11-13T05:12:40.748Z,14.45
2017-11-13T05:13:15.529Z,16.20
2017-11-13T05:13:51.004Z,14.45
2017-11-13T05:14:25.721Z,14.40
2017-11-13T05:15:00.178Z,14.57
2017-11-13T05:15:34.859Z,16.12
2017-11-13T05:16:10.156Z,16.30
2017-11-13T05:16:45.064Z,16.23
2017-11-13T05:17:19.783Z,14.55
2017-11-13T05:17:54.499Z,14.25
2017-11-13T05:18:29.035Z,14.32
2017-11-13T05:19:03.756Z,14.50
2017-11-13T05:19:38.138Z,14.75
2017-11-13T05:20:12.845Z,14.02
2017-11-13T05:20:47.705Z,14.38
2017-11-13T05:21:22.473Z,14.13
2017-11-13T05:21:57.193Z,14.25
2017-11-13T05:22:31.905Z,14.00
2017-11-13T05:23:06.619Z,13.40
2017-11-13T05:23:41.409Z,14.70
2017-11-13T05:24:16.117Z,15.07
2017-11-13T05:24:50.803Z,13.45
2017-11-13T05:25:25.170Z,14.25
2017-11-13T05:25:59.900Z,13.65
2017-11-13T05:26:34.774Z,13.20
2017-11-13T05:27:09.503Z,13.82
2017-11-13T05:27:44.231Z,13.93
2017-11-13T05:28:18.934Z,13.90
2017-11-13T05:28:55.909Z,13.48
2017-11-13T05:29:30.620Z,12.93
2017-11-13T05:30:05.337Z,12.98
2017-11-13T05:30:40.047Z,13.18
2017-11-13T05:31:14.785Z,14.30
2017-11-13T05:31:49.533Z,13.65
2017-11-13T05:32:24.262Z,13.98
2017-11-13T05:32:58.998Z,14.40
2017-11-13T05:33:33.732Z,14.68
2017-11-13T05:34:08.539Z,14.00
2017-11-13T05:34:43.257Z,13.90
2017-11-13T05:35:17.968Z,13.68
2017-11-13T05:35:52.682Z,13.27
2017-11-13T05:36:27.676Z,13.98
2017-11-13T05:37:02.368Z,14.02
2017-11-13T05:37:37.081Z,14.65
2017-11-13T05:38:11.487Z,14.00
2017-11-13T05:38:46.239Z,14.43
2017-11-13T05:39:20.965Z,13.38
2017-11-13T05:39:55.669Z,14.35
2017-11-13T05:40:30.388Z,13.57
2017-11-13T05:41:05.098Z,13.68
2017-11-13T05:41:40.162Z,13.32
2017-11-13T05:42:14.938Z,13.27
2017-11-13T05:42:49.654Z,12.70
2017-11-13T05:43:24.374Z,13.20
2017-11-13T05:43:59.108Z,13.80
2017-11-13T05:44:33.824Z,14.32
2017-11-13T05:45:08.544Z,14.38
2017-11-13T05:45:43.252Z,12.75
2017-11-13T05:46:17.970Z,12.02
2017-11-13T05:46:52.988Z,13.15
2017-11-13T05:47:27.705Z,13.32
2017-11-13T05:48:02.212Z,12.70
2017-11-13T05:48:36.966Z,13.90
2017-11-13T05:49:11.679Z,13.32
2017-11-13T05:49:46.421Z,14.00
2017-11-13T05:50:21.140Z,12.75
2017-11-13T05:50:55.853Z,13.00
2017-11-13T05:51:30.563Z,13.32
2017-11-13T05:52:05.582Z,12.20
2017-11-13T05:52:40.401Z,13.60
2017-11-13T05:53:15.120Z,13.02
2017-11-13T05:53:49.810Z,12.68
2017-11-13T05:54:24.556Z,12.60
2017-11-13T05:54:59.297Z,14.00
2017-11-13T05:55:34.015Z,13.10
2017-11-13T05:56:08.745Z,13.93
2017-11-13T05:56:43.449Z,13.25
2017-11-13T05:57:18.437Z,12.75
2017-11-13T05:57:53.176Z,13.65
2017-11-13T05:58:27.914Z,12.77
2017-11-13T05:59:02.643Z,12.93
2017-11-13T05:59:37.356Z,11.95
2017-11-13T06:00:12.075Z,13.25
2017-11-13T06:00:46.905Z,12.98
2017-11-13T06:01:21.619Z,12.63
2017-11-13T06:01:56.332Z,12.82
2017-11-13T06:02:31.074Z,13.77
2017-11-13T06:03:05.800Z,12.65
2017-11-13T06:03:40.522Z,13.15
2017-11-13T06:04:15.241Z,12.93
2017-11-13T06:04:49.965Z,12.90
2017-11-13T06:05:24.677Z,13.15
2017-11-13T06:05:59.414Z,12.63
2017-11-13T06:06:34.150Z,12.60
2017-11-13T06:07:08.876Z,12.88
2017-11-13T06:07:43.920Z,12.45
2017-11-13T06:08:18.648Z,14.10
2017-11-13T06:08:53.371Z,13.62
2017-11-13T06:09:28.088Z,14.05
2017-11-13T06:10:02.805Z,13.90
2017-11-13T06:10:37.514Z,14.68
2017-11-13T06:11:12.251Z,13.88
2017-11-13T06:11:46.969Z,14.38
2017-11-13T06:12:21.694Z,13.43
2017-11-13T06:12:56.756Z,12.82
2017-11-13T06:13:31.496Z,12.82
2017-11-13T06:14:06.223Z,13.07
2017-11-13T06:14:40.937Z,13.50
2017-11-13T06:15:15.635Z,13.05
2017-11-13T06:15:50.401Z,12.63
2017-11-13T06:16:25.141Z,14.65
2017-11-13T06:16:59.844Z,13.13
2017-11-13T06:17:34.542Z,12.32
2017-11-13T06:18:09.276Z,13.40
2017-11-13T06:18:43.982Z,12.45
2017-11-13T06:19:18.696Z,13.57
2017-11-13T06:19:53.521Z,13.38
2017-11-13T06:20:28.229Z,13.95
2017-11-13T06:21:02.947Z,13.27
2017-11-13T06:21:37.669Z,12.75
2017-11-13T06:22:12.390Z,12.63
2017-11-13T06:22:47.124Z,12.50
2017-11-13T06:23:22.158Z,13.45
2017-11-13T06:23:56.927Z,11.95
2017-11-13T06:24:31.689Z,11.80
2017-11-13T06:25:06.404Z,12.20
2017-11-13T06:25:41.124Z,12.73
2017-11-13T06:26:16.027Z,12.80
2017-11-13T06:26:50.745Z,12.07
2017-11-13T06:27:25.460Z,12.77
2017-11-13T06:28:00.184Z,11.82
2017-11-13T06:28:35.002Z,12.20
2017-11-13T06:29:09.730Z,12.30
2017-11-13T06:29:44.566Z,12.93
2017-11-13T06:30:19.303Z,11.30
2017-11-13T06:30:54.021Z,11.57
2017-11-13T06:31:28.773Z,11.55
2017-11-13T06:32:03.629Z,13.07
2017-11-13T06:32:38.385Z,10.73
2017-11-13T06:33:13.107Z,12.02
2017-11-13T06:33:47.850Z,11.00
2017-11-13T06:34:22.592Z,13.38
2017-11-13T06:34:57.345Z,13.68
2017-11-13T06:35:32.068Z,14.35
2017-11-13T06:36:06.782Z,13.85
2017-11-13T06:36:41.497Z,12.57
2017-11-13T06:37:16.235Z,12.25
2017-11-13T06:37:50.951Z,13.62
2017-11-13T06:38:25.673Z,13.15
2017-11-13T06:39:00.420Z,12.13
2017-11-13T06:39:35.148Z,12.88
2017-11-13T06:40:09.889Z,11.85
2017-11-13T06:40:44.593Z,12.15
2017-11-13T06:41:19.384Z,12.10
2017-11-13T06:41:54.135Z,14.00
2017-11-13T06:42:28.883Z,12.02
2017-11-13T06:43:03.602Z,12.45
2017-11-13T06:43:38.365Z,12.27
2017-11-13T06:44:13.244Z,12.68
2017-11-13T06:44:47.952Z,12.82
2017-11-13T06:45:22.689Z,12.80
2017-11-13T06:45:57.575Z,14.23
2017-11-13T06:46:32.292Z,14.95
2017-11-13T06:47:07.003Z,12.75
2017-11-13T06:47:41.722Z,12.18
2017-11-13T06:48:16.441Z,11.57
2017-11-13T06:48:51.251Z,11.20
2017-11-13T06:49:26.014Z,12.05
2017-11-13T06:50:00.723Z,12.50
2017-11-13T06:50:35.441Z,12.30
2017-11-13T06:51:10.158Z,13.07
2017-11-13T06:51:44.881Z,11.52
2017-11-13T06:52:19.597Z,11.40
2017-11-13T06:52:54.309Z,12.90
2017-11-13T06:53:29.046Z,11.80
2017-11-13T06:54:03.433Z,11.63
2017-11-13T06:54:38.504Z,11.73
2017-11-13T06:55:13.242Z,11.18
2017-11-13T06:55:47.968Z,11.25
2017-11-13T06:56:22.664Z,11.63
2017-11-13T06:56:57.382Z,10.73
2017-11-13T06:57:32.106Z,11.52
2017-11-13T06:58:06.839Z,12.13
2017-11-13T06:58:41.548Z,11.98
2017-11-13T06:59:16.298Z,11.60
2017-11-13T06:59:51.014Z,12.18
2017-11-13T07:00:25.726Z,11.75
2017-11-13T07:01:00.438Z,11.55
2017-11-13T07:01:35.169Z,11.43
2017-11-13T07:02:09.884Z,12.75
2017-11-13T07:02:44.613Z,11.20
2017-11-13T07:03:19.449Z,12.35
2017-11-13T07:03:54.185Z,11.95
2017-11-13T07:04:28.944Z,11.60
2017-11-13T07:05:03.693Z,11.43
2017-11-13T07:05:38.428Z,11.93
2017-11-13T07:06:13.132Z,12.52
2017-11-13T07:06:47.858Z,10.50
2017-11-13T07:07:22.603Z,12.48
2017-11-13T07:07:57.334Z,12.50
2017-11-13T07:08:32.065Z,11.23
2017-11-13T07:09:06.798Z,11.12
2017-11-13T07:09:41.521Z,11.88
2017-11-13T07:10:16.272Z,11.85
2017-11-13T07:10:50.985Z,13.38
2017-11-13T07:11:25.368Z,11.20
2017-11-13T07:12:00.103Z,11.52
2017-11-13T07:12:34.817Z,11.57
2017-11-13T07:13:09.545Z,11.20
2017-11-13T07:13:44.337Z,10.63
2017-11-13T07:14:19.077Z,10.93
2017-11-13T07:14:53.814Z,11.15
2017-11-13T07:15:28.829Z,10.10
2017-11-13T07:16:03.580Z,11.20
2017-11-13T07:16:38.314Z,11.57
2017-11-13T07:17:13.286Z,10.73
2017-11-13T07:17:48.025Z,11.25
2017-11-13T07:18:22.749Z,10.55
2017-11-13T07:18:57.486Z,9.55
2017-11-13T07:19:32.201Z,10.05
2017-11-13T07:20:06.913Z,16.65
2017-11-13T07:20:41.914Z,15.55
2017-11-13T07:21:16.656Z,11.50
2017-11-13T07:21:51.191Z,13.00
2017-11-13T07:22:25.904Z,9.25
2017-11-13T07:23:00.647Z,7.93
2017-11-13T07:23:35.360Z,8.48
2017-11-13T07:24:10.432Z,8.93
2017-11-13T07:24:45.168Z,8.18
2017-11-13T07:25:19.874Z,8.40
2017-11-13T07:25:54.813Z,7.65
2017-11-13T07:26:29.544Z,8.70
2017-11-13T07:27:04.268Z,8.60
2017-11-13T07:27:39.004Z,8.00